createdAt,value
2023-03-20T00:01:46.051Z,14.58
2023-03-20T00:04:12.708Z,14.55
2023-03-20T00:06:39.377Z,14.51
2023-03-20T00:09:07.236Z,14.43
2023-03-20T00:11:36.326Z,14.38
2023-03-20T00:14:06.095Z,14.34
2023-03-20T00:16:34.787Z,14.28
2023-03-20T00:19:01.947Z,14.19
2023-03-20T00:21:28.531Z,14.26
2023-03-20T00:23:55.448Z,14.19
2023-03-20T00:26:25.615Z,14.22
2023-03-20T00:28:52.585Z,14.08
2023-03-20T00:31:22.690Z,14.12
2023-03-20T00:33:49.606Z,14.05
2023-03-20T00:36:17.268Z,14.02
2023-03-20T00:38:43.800Z,13.82
2023-03-20T00:41:33.556Z,13.89
2023-03-20T00:44:02.867Z,13.82
2023-03-20T00:46:32.510Z,13.78
2023-03-20T00:48:59.050Z,13.75
2023-03-20T00:51:25.665Z,13.69
2023-03-20T00:53:52.262Z,13.62
2023-03-20T00:56:32.303Z,13.61
2023-03-20T00:59:00.465Z,13.60
2023-03-20T01:01:27.288Z,13.53
2023-03-20T01:03:53.840Z,13.49
2023-03-20T01:06:20.332Z,13.47
2023-03-20T01:08:48.908Z,13.45
2023-03-20T01:11:17.165Z,13.47
2023-03-20T01:13:43.754Z,13.41
2023-03-20T01:16:22.449Z,13.44
2023-03-20T01:18:49.897Z,13.37
2023-03-20T01:21:17.246Z,13.38
2023-03-20T01:23:44.101Z,13.38
2023-03-20T01:26:29.133Z,13.43
2023-03-20T01:28:55.671Z,13.37
2023-03-20T01:31:22.558Z,13.35
2023-03-20T01:33:49.110Z,13.35
2023-03-20T01:36:22.112Z,13.34
2023-03-20T01:38:54.669Z,13.32
2023-03-20T01:41:23.508Z,13.32
2023-03-20T01:43:50.195Z,13.27
2023-03-20T01:46:29.964Z,13.27
2023-03-20T01:49:09.059Z,13.27
2023-03-20T01:51:37.631Z,13.22
2023-03-20T01:54:14.966Z,13.26
2023-03-20T01:57:11.366Z,13.26
2023-03-20T01:59:42.795Z,13.26
2023-03-20T02:02:09.996Z,12.97
2023-03-20T02:04:39.968Z,12.92
2023-03-20T02:07:10.255Z,13.17
2023-03-20T02:09:57.080Z,13.22
2023-03-20T02:12:35.617Z,13.24
2023-03-20T02:15:06.130Z,13.27
2023-03-20T02:17:47.801Z,13.38
2023-03-20T02:20:34.134Z,13.31
2023-03-20T02:23:06.717Z,12.74
2023-03-20T02:25:34.820Z,12.63
2023-03-20T02:28:19.885Z,12.82
2023-03-20T02:31:11.064Z,12.67
2023-03-20T02:33:58.758Z,12.65
2023-03-20T02:36:42.268Z,12.63
2023-03-20T02:39:46.609Z,12.61
2023-03-20T02:42:31.366Z,12.56
2023-03-20T02:45:18.813Z,12.54
2023-03-20T02:47:51.285Z,12.52
2023-03-20T02:50:37.506Z,12.54
2023-03-20T02:53:40.264Z,12.57
2023-03-20T02:56:14.146Z,12.59
2023-03-20T02:58:55.054Z,12.61
2023-03-20T03:01:26.655Z,12.63
2023-03-20T03:04:02.917Z,12.69
2023-03-20T03:06:32.571Z,12.74
2023-03-20T03:09:03.979Z,13.02
2023-03-20T03:11:32.593Z,13.12
2023-03-20T03:13:59.080Z,12.91
2023-03-20T03:16:29.470Z,12.84
2023-03-20T03:19:19.785Z,12.78
2023-03-20T03:21:47.310Z,12.71
2023-03-20T03:24:39.933Z,12.76
2023-03-20T03:27:41.574Z,12.76
2023-03-20T03:30:12.877Z,12.77
2023-03-20T03:33:17.109Z,12.83
2023-03-20T03:35:43.990Z,12.88
2023-03-20T03:38:28.586Z,12.79
2023-03-20T03:41:07.535Z,12.81
2023-03-20T03:43:54.053Z,12.84
2023-03-20T03:46:25.329Z,12.86
2023-03-20T03:48:55.685Z,12.88
2023-03-20T03:51:25.117Z,12.91
2023-03-20T03:54:05.251Z,12.93
2023-03-20T03:56:33.246Z,12.93
2023-03-20T03:59:04.447Z,12.96
2023-03-20T04:01:32.478Z,13.04
2023-03-20T04:04:01.069Z,12.97
2023-03-20T04:06:28.129Z,12.92
2023-03-20T04:08:54.729Z,12.90
2023-03-20T04:11:25.056Z,12.87
2023-03-20T04:13:52.492Z,12.91
2023-03-20T04:16:22.500Z,12.91
2023-03-20T04:18:49.818Z,12.90
2023-03-20T04:21:16.956Z,12.93
2023-03-20T04:23:44.010Z,12.90
2023-03-20T04:26:10.535Z,12.92
2023-03-20T04:28:37.201Z,12.93
2023-03-20T04:31:16.734Z,12.91
2023-03-20T04:34:07.171Z,12.91
2023-03-20T04:37:03.031Z,12.91
2023-03-20T04:39:43.022Z,12.94
2023-03-20T04:42:11.749Z,12.93
2023-03-20T04:44:38.259Z,12.94
2023-03-20T04:47:04.784Z,12.66
2023-03-20T04:49:33.248Z,12.56
2023-03-20T04:52:00.031Z,12.54
2023-03-20T04:54:36.170Z,12.56
2023-03-20T04:57:02.764Z,12.59
2023-03-20T04:59:29.255Z,12.54
2023-03-20T05:01:55.935Z,12.50
2023-03-20T05:04:22.844Z,12.48
2023-03-20T05:06:49.739Z,12.51
2023-03-20T05:09:19.147Z,12.45
2023-03-20T05:11:46.739Z,12.43
2023-03-20T05:14:31.723Z,12.45
2023-03-20T05:17:25.033Z,12.49
2023-03-20T05:20:11.341Z,12.51
2023-03-20T05:22:51.770Z,12.45
2023-03-20T05:25:34.820Z,12.45
2023-03-20T05:28:23.980Z,12.44
2023-03-20T05:31:08.208Z,12.47
2023-03-20T05:33:49.270Z,12.43
2023-03-20T05:36:35.663Z,12.44
2023-03-20T05:39:20.777Z,12.49
2023-03-20T05:42:03.698Z,12.51
2023-03-20T05:44:41.103Z,12.50
2023-03-20T05:47:36.821Z,12.46
2023-03-20T05:50:27.772Z,12.46
2023-03-20T05:53:17.497Z,12.49
2023-03-20T05:56:02.252Z,12.41
2023-03-20T05:58:47.408Z,12.42
2023-03-20T06:01:27.982Z,12.45
2023-03-20T06:04:09.343Z,12.46
2023-03-20T06:07:06.257Z,12.46
2023-03-20T06:09:33.525Z,12.46
2023-03-20T06:12:03.495Z,12.47
2023-03-20T06:14:30.967Z,12.46
2023-03-20T06:17:01.501Z,12.62
2023-03-20T06:19:28.463Z,12.67
2023-03-20T06:21:56.219Z,12.67
2023-03-20T06:24:24.378Z,12.61
2023-03-20T06:26:50.967Z,12.67
2023-03-20T06:29:18.350Z,12.68
2023-03-20T06:31:45.574Z,12.60
2023-03-20T06:34:22.200Z,12.49
2023-03-20T06:36:48.783Z,12.53
2023-03-20T06:39:19.974Z,12.50
2023-03-20T06:41:47.207Z,12.31
2023-03-20T06:44:13.875Z,12.31
2023-03-20T06:47:06.717Z,12.23
2023-03-20T06:49:33.223Z,12.28
2023-03-20T06:51:59.849Z,12.22
2023-03-20T06:54:27.352Z,12.20
2023-03-20T06:56:54.827Z,12.02
2023-03-20T06:59:21.777Z,11.80
2023-03-20T07:01:48.892Z,11.90
2023-03-20T07:04:15.721Z,12.05
2023-03-20T07:06:48.067Z,12.01
2023-03-20T07:09:14.789Z,11.92
2023-03-20T07:11:41.611Z,11.96
2023-03-20T07:14:08.595Z,12.03
2023-03-20T07:16:46.084Z,12.09
2023-03-20T07:19:13.645Z,12.18
2023-03-20T07:21:43.383Z,12.21
2023-03-20T07:24:10.463Z,12.22
2023-03-20T07:26:37.079Z,12.04
2023-03-20T07:29:04.334Z,12.14
2023-03-20T07:31:32.578Z,12.16
2023-03-20T07:34:10.964Z,12.22
2023-03-20T07:36:37.748Z,12.34
2023-03-20T07:39:04.557Z,12.32
2023-03-20T07:41:32.452Z,12.38
2023-03-20T07:44:03.363Z,12.41
2023-03-20T07:46:41.461Z,12.40
2023-03-20T07:49:08.022Z,12.44
2023-03-20T07:51:34.711Z,12.53
2023-03-20T07:54:03.275Z,12.62
2023-03-20T07:56:30.097Z,12.64
2023-03-20T07:58:57.225Z,12.63
2023-03-20T08:01:23.803Z,12.68
2023-03-20T08:03:50.442Z,12.74
2023-03-20T08:06:17.345Z,12.78
2023-03-20T08:08:45.062Z,12.84
2023-03-20T08:11:12.014Z,12.89
2023-03-20T08:13:38.573Z,12.89
2023-03-20T08:16:06.143Z,12.98
2023-03-20T08:18:32.870Z,12.87
2023-03-20T08:20:59.613Z,12.94
2023-03-20T08:23:27.022Z,12.96
2023-03-20T08:25:54.318Z,12.94
2023-03-20T08:28:21.305Z,12.89
2023-03-20T08:30:48.095Z,12.88
2023-03-20T08:33:16.385Z,12.94
2023-03-20T08:35:43.660Z,13.05
2023-03-20T08:38:12.888Z,13.29
2023-03-20T08:40:42.862Z,14.06
2023-03-20T08:43:09.713Z,14.92
2023-03-20T08:45:36.739Z,15.51
2023-03-20T08:48:03.982Z,16.07
2023-03-20T08:50:31.512Z,16.48
2023-03-20T08:52:58.158Z,16.45
2023-03-20T08:55:24.822Z,16.28
2023-03-20T08:57:51.416Z,16.04
2023-03-20T09:00:20.503Z,15.78
2023-03-20T09:02:47.195Z,15.68
2023-03-20T09:05:13.859Z,15.65
2023-03-20T09:07:40.387Z,15.65
2023-03-20T09:10:07.422Z,15.60
2023-03-20T09:12:34.072Z,15.43
2023-03-20T09:15:01.327Z,15.21
2023-03-20T09:17:27.957Z,15.15
2023-03-20T09:19:54.490Z,15.23
2023-03-20T09:22:21.038Z,15.20
2023-03-20T09:24:47.616Z,15.30
2023-03-20T09:27:14.246Z,15.31
2023-03-20T09:29:41.642Z,15.31
2023-03-20T09:32:11.694Z,15.69
2023-03-20T09:34:38.229Z,16.02
2023-03-20T09:37:05.017Z,16.36
2023-03-20T09:39:31.673Z,16.64
2023-03-20T09:42:01.926Z,16.95
2023-03-20T09:44:46.334Z,17.33
2023-03-20T09:47:21.348Z,17.46
2023-03-20T09:49:47.902Z,17.29
2023-03-20T09:52:24.747Z,16.98
2023-03-20T09:54:54.901Z,16.67
2023-03-20T09:57:27.858Z,16.37
2023-03-20T09:59:58.232Z,16.02
2023-03-20T10:02:42.713Z,15.98
2023-03-20T10:05:21.754Z,15.90
2023-03-20T10:07:48.412Z,15.65
2023-03-20T10:10:15.981Z,15.49
2023-03-20T10:13:14.089Z,15.21
2023-03-20T10:16:12.913Z,15.28
2023-03-20T10:18:44.180Z,15.16
2023-03-20T10:21:18.955Z,15.25
2023-03-20T10:24:03.616Z,15.22
2023-03-20T10:26:34.247Z,15.47
2023-03-20T10:29:02.732Z,15.37
2023-03-20T10:31:57.478Z,15.41
2023-03-20T10:34:45.867Z,15.44
2023-03-20T10:37:30.048Z,15.52
2023-03-20T10:40:29.024Z,15.56
2023-03-20T10:42:59.362Z,15.60
2023-03-20T10:45:41.089Z,15.64
2023-03-20T10:48:21.722Z,15.62
2023-03-20T10:50:52.672Z,15.39
2023-03-20T10:53:25.703Z,15.47
2023-03-20T10:55:55.443Z,15.37
2023-03-20T10:58:27.343Z,15.27
2023-03-20T11:00:55.803Z,15.30
2023-03-20T11:03:25.056Z,15.30
2023-03-20T11:06:09.727Z,15.39
2023-03-20T11:08:40.912Z,15.37
2023-03-20T11:11:07.896Z,15.25
2023-03-20T11:13:37.763Z,15.16
2023-03-20T11:16:11.153Z,15.30
2023-03-20T11:18:41.090Z,15.32
2023-03-20T11:21:14.541Z,15.31
2023-03-20T11:23:41.253Z,15.27
2023-03-20T11:26:08.186Z,15.31
2023-03-20T11:28:38.552Z,15.32
2023-03-20T11:31:07.633Z,15.31
2023-03-20T11:33:37.868Z,15.30
2023-03-20T11:36:11.433Z,15.16
2023-03-20T11:38:44.200Z,15.24
2023-03-20T11:41:24.236Z,15.28
2023-03-20T11:43:50.873Z,15.25
2023-03-20T11:46:19.797Z,15.34
2023-03-20T11:48:47.226Z,15.22
2023-03-20T11:51:19.736Z,15.30
2023-03-20T11:53:49.207Z,15.37
2023-03-20T11:56:26.847Z,15.30
2023-03-20T11:59:19.599Z,15.43
2023-03-20T12:01:51.561Z,15.34
2023-03-20T12:04:28.683Z,15.32
2023-03-20T12:07:05.000Z,15.50
2023-03-20T12:09:38.545Z,15.35
2023-03-20T12:12:10.092Z,15.31
2023-03-20T12:14:53.348Z,15.35
2023-03-20T12:17:50.640Z,15.41
2023-03-20T12:20:28.683Z,15.47
2023-03-20T12:23:13.746Z,15.58
2023-03-20T12:26:19.812Z,15.59
2023-03-20T12:28:51.854Z,15.68
2023-03-20T12:31:39.795Z,15.60
2023-03-20T12:34:11.798Z,15.58
2023-03-20T12:36:46.402Z,15.61
2023-03-20T12:39:16.082Z,15.56
2023-03-20T12:42:01.136Z,15.52
2023-03-20T12:44:37.028Z,15.58
2023-03-20T12:47:22.355Z,15.68
2023-03-20T12:49:55.850Z,15.43
2023-03-20T12:52:41.370Z,15.45
2023-03-20T12:55:21.796Z,15.51
2023-03-20T12:57:58.860Z,15.60
2023-03-20T13:00:33.887Z,15.46
2023-03-20T13:03:31.202Z,15.49
2023-03-20T13:06:10.359Z,15.42
2023-03-20T13:08:45.874Z,15.39
2023-03-20T13:11:31.177Z,15.39
2023-03-20T13:14:09.807Z,15.43
2023-03-20T13:16:46.283Z,15.38
2023-03-20T13:19:25.551Z,15.48
2023-03-20T13:22:04.171Z,15.51
2023-03-20T13:24:40.407Z,15.45
2023-03-20T13:27:19.896Z,15.52
2023-03-20T13:29:55.503Z,15.55
2023-03-20T13:32:44.395Z,15.62
2023-03-20T13:35:40.976Z,15.67
2023-03-20T13:38:23.381Z,15.88
2023-03-20T13:41:02.781Z,16.08
2023-03-20T13:43:34.970Z,16.18
2023-03-20T13:46:09.442Z,15.97
2023-03-20T13:48:40.919Z,16.04
2023-03-20T13:51:17.422Z,15.92
2023-03-20T13:54:10.987Z,15.92
2023-03-20T13:56:58.960Z,15.99
2023-03-20T13:59:33.611Z,15.93
2023-03-20T14:02:10.672Z,15.49
2023-03-20T14:04:37.613Z,15.44
2023-03-20T14:07:31.290Z,15.47
2023-03-20T14:09:57.958Z,15.11
2023-03-20T14:12:26.412Z,15.10
2023-03-20T14:14:56.153Z,14.98
2023-03-20T14:17:30.754Z,14.97
2023-03-20T14:19:57.944Z,15.05
2023-03-20T14:22:35.650Z,15.05
2023-03-20T14:25:15.931Z,15.15
2023-03-20T14:28:20.769Z,14.97
2023-03-20T14:30:50.784Z,14.97
2023-03-20T14:33:17.305Z,14.93
2023-03-20T14:35:52.334Z,14.87
2023-03-20T14:38:26.554Z,14.88
2023-03-20T14:41:00.136Z,14.93
2023-03-20T14:43:58.644Z,14.95
2023-03-20T14:46:51.273Z,14.99
2023-03-20T14:49:34.801Z,14.99
2023-03-20T14:52:15.274Z,15.03
2023-03-20T14:54:41.851Z,15.02
2023-03-20T14:57:19.990Z,14.96
2023-03-20T14:59:50.050Z,14.87
2023-03-20T15:02:28.214Z,14.98
2023-03-20T15:04:55.766Z,14.97
2023-03-20T15:07:27.762Z,15.02
2023-03-20T15:09:59.397Z,15.03
2023-03-20T15:12:35.510Z,15.12
2023-03-20T15:15:07.700Z,15.16
2023-03-20T15:17:39.939Z,15.18
2023-03-20T15:20:24.212Z,15.28
2023-03-20T15:22:58.069Z,15.25
2023-03-20T15:25:39.979Z,15.29
2023-03-20T15:28:07.534Z,15.24
2023-03-20T15:30:37.487Z,15.27
2023-03-20T15:33:04.513Z,15.37
2023-03-20T15:35:31.166Z,15.36
2023-03-20T15:38:03.051Z,15.34
2023-03-20T15:40:47.358Z,15.28
2023-03-20T15:43:24.556Z,15.29
2023-03-20T15:46:02.954Z,15.26
2023-03-20T15:48:33.141Z,15.22
2023-03-20T15:51:04.942Z,15.14
2023-03-20T15:53:38.884Z,15.04
2023-03-20T15:56:17.315Z,14.99
2023-03-20T15:58:44.934Z,15.00
2023-03-20T16:01:16.131Z,14.97
2023-03-20T16:03:42.835Z,14.93
2023-03-20T16:06:11.420Z,14.91
2023-03-20T16:08:39.143Z,14.94
2023-03-20T16:11:10.425Z,14.95
2023-03-20T16:13:39.813Z,14.95
2023-03-20T16:16:10.315Z,14.89
2023-03-20T16:18:38.472Z,14.84
2023-03-20T16:21:07.865Z,14.83
2023-03-20T16:23:35.648Z,14.80
2023-03-20T16:26:05.840Z,14.84
2023-03-20T16:28:36.554Z,14.80
2023-03-20T16:31:09.359Z,14.81
2023-03-20T16:33:37.152Z,14.78
2023-03-20T16:36:04.280Z,14.81
2023-03-20T16:38:36.378Z,14.85
2023-03-20T16:41:29.650Z,14.85
2023-03-20T16:43:59.503Z,14.73
2023-03-20T16:46:27.594Z,14.69
2023-03-20T16:48:58.909Z,14.71
2023-03-20T16:51:30.032Z,14.68
2023-03-20T16:53:57.583Z,14.68
2023-03-20T16:56:40.511Z,14.58
2023-03-20T16:59:11.776Z,14.54
2023-03-20T17:01:43.130Z,14.49
2023-03-20T17:04:34.970Z,14.57
2023-03-20T17:07:07.646Z,14.32
2023-03-20T17:09:34.291Z,14.22
2023-03-20T17:12:18.333Z,14.25
2023-03-20T17:14:45.518Z,14.29
2023-03-20T17:17:19.345Z,14.26
2023-03-20T17:19:47.002Z,14.19
2023-03-20T17:22:15.663Z,14.21
2023-03-20T17:24:42.131Z,14.14
2023-03-20T17:27:11.467Z,14.19
2023-03-20T17:29:39.001Z,14.25
2023-03-20T17:32:13.050Z,14.28
2023-03-20T17:34:40.105Z,14.26
2023-03-20T17:37:07.291Z,14.24
2023-03-20T17:39:33.868Z,14.20
2023-03-20T17:42:00.449Z,14.16
2023-03-20T17:44:27.341Z,14.15
2023-03-20T17:46:58.716Z,14.16
2023-03-20T17:49:27.362Z,14.11
2023-03-20T17:51:54.584Z,14.12
2023-03-20T17:54:21.498Z,14.09
2023-03-20T17:56:48.060Z,14.12
2023-03-20T17:59:14.815Z,14.10
2023-03-20T18:01:41.812Z,14.13
2023-03-20T18:04:08.411Z,14.09
2023-03-20T18:06:35.014Z,14.04
2023-03-20T18:09:01.870Z,13.98
2023-03-20T18:11:28.709Z,13.96
2023-03-20T18:13:55.312Z,13.92
2023-03-20T18:16:25.082Z,13.94
2023-03-20T18:18:52.639Z,13.90
2023-03-20T18:21:19.167Z,13.89
2023-03-20T18:23:45.915Z,13.86
2023-03-20T18:26:20.192Z,13.84
2023-03-20T18:28:46.889Z,13.81
2023-03-20T18:31:14.959Z,13.75
2023-03-20T18:33:41.579Z,13.72
2023-03-20T18:36:13.979Z,13.75
2023-03-20T18:38:40.599Z,13.71
2023-03-20T18:41:07.183Z,13.70
2023-03-20T18:43:33.660Z,13.70
2023-03-20T18:46:00.469Z,13.69
2023-03-20T18:48:27.209Z,13.68
2023-03-20T18:51:00.926Z,13.70
2023-03-20T18:53:28.991Z,13.59
2023-03-20T18:55:56.022Z,13.51
2023-03-20T18:58:25.264Z,13.52
2023-03-20T19:00:54.030Z,13.49
2023-03-20T19:03:24.916Z,13.48
2023-03-20T19:05:57.766Z,13.48
2023-03-20T19:08:24.377Z,13.42
2023-03-20T19:10:50.884Z,13.41
2023-03-20T19:13:19.716Z,13.43
2023-03-20T19:15:46.693Z,13.48
2023-03-20T19:18:19.280Z,13.56
2023-03-20T19:20:50.593Z,13.52
2023-03-20T19:23:18.214Z,13.57
2023-03-20T19:25:46.566Z,13.48
2023-03-20T19:28:37.751Z,13.65
2023-03-20T19:31:06.410Z,13.62
2023-03-20T19:33:33.276Z,13.57
2023-03-20T19:36:03.309Z,13.61
2023-03-20T19:38:30.959Z,13.63
2023-03-20T19:40:57.998Z,13.62
2023-03-20T19:43:24.691Z,13.62
2023-03-20T19:45:57.178Z,13.64
2023-03-20T19:48:27.189Z,13.53
2023-03-20T19:50:54.094Z,13.42
2023-03-20T19:53:24.855Z,13.42
2023-03-20T19:55:51.914Z,13.34
2023-03-20T19:58:18.777Z,13.36
2023-03-20T20:01:01.000Z,13.35
2023-03-20T20:03:28.026Z,13.36
2023-03-20T20:05:54.708Z,13.35
2023-03-20T20:08:41.336Z,13.33
2023-03-20T20:11:09.779Z,13.27
2023-03-20T20:13:50.744Z,13.27
2023-03-20T20:16:22.841Z,13.21
2023-03-20T20:18:49.430Z,13.24
2023-03-20T20:24:02.792Z,13.13
2023-03-20T20:26:31.360Z,13.08
2023-03-20T20:29:01.465Z,13.03
2023-03-20T20:31:29.306Z,13.08
2023-03-20T20:34:25.231Z,13.08
2023-03-20T20:37:30.540Z,13.03
2023-03-20T20:39:28.967Z,13.01
2023-03-20T20:41:55.670Z,13.12
2023-03-20T20:44:22.173Z,13.17
2023-03-20T20:46:48.702Z,13.11
2023-03-20T20:49:19.468Z,13.08
2023-03-20T20:51:47.926Z,13.09
2023-03-20T20:54:14.533Z,13.09
2023-03-20T20:56:41.382Z,13.15
2023-03-20T20:59:10.985Z,13.19
2023-03-20T21:01:37.509Z,13.28
2023-03-20T21:04:04.093Z,13.30
2023-03-20T21:07:03.412Z,13.28
2023-03-20T21:09:17.187Z,13.34
2023-03-20T21:11:43.709Z,13.31
2023-03-20T21:14:10.613Z,13.26
2023-03-20T21:16:37.253Z,13.24
2023-03-20T21:19:03.878Z,13.21
2023-03-20T21:21:30.492Z,13.21
2023-03-20T21:23:57.073Z,13.24
2023-03-20T21:26:23.849Z,13.21
2023-03-20T21:28:50.805Z,13.18
2023-03-20T21:31:30.432Z,13.21
2023-03-20T21:33:57.826Z,13.14
2023-03-20T21:36:24.563Z,13.17
2023-03-20T21:39:07.440Z,13.18
2023-03-20T21:41:38.795Z,13.17
2023-03-20T21:44:06.408Z,13.22
2023-03-20T22:03:33.804Z,13.04
2023-03-20T22:12:22.974Z,12.97
2023-03-20T22:23:40.408Z,12.82
2023-03-20T22:42:49.700Z,12.58
2023-03-20T22:45:09.134Z,12.58
2023-03-20T22:47:36.195Z,12.57
2023-03-20T22:50:02.744Z,12.60
2023-03-20T22:52:42.023Z,12.52
2023-03-20T22:55:14.993Z,12.51
2023-03-20T22:57:50.199Z,12.53
2023-03-20T23:00:22.531Z,12.47
2023-03-20T23:02:49.060Z,12.41
2023-03-20T23:05:15.631Z,12.39
2023-03-20T23:07:42.886Z,12.41
2023-03-20T23:10:10.211Z,12.50
2023-03-20T23:12:38.066Z,12.70
2023-03-20T23:15:05.981Z,12.57
2023-03-20T23:17:32.457Z,12.45
2023-03-20T23:20:10.307Z,12.55
2023-03-20T23:22:38.256Z,12.75
2023-03-20T23:25:13.330Z,12.72
2023-03-20T23:27:43.325Z,12.72
2023-03-20T23:30:10.881Z,12.62
2023-03-20T23:32:38.966Z,12.43
2023-03-20T23:35:06.754Z,12.42
2023-03-20T23:37:33.486Z,12.46
2023-03-20T23:39:59.955Z,12.38
2023-03-20T23:42:30.702Z,12.40
2023-03-20T23:45:02.176Z,12.40
2023-03-20T23:47:44.344Z,12.44
2023-03-20T23:50:14.594Z,12.38
2023-03-20T23:52:53.433Z,12.51
2023-03-20T23:55:23.910Z,12.34
2023-03-20T23:57:50.615Z,12.41
